sensor_id;sensor_type;location;lat;lon;timestamp;temperature;humidity
43665;DHT22;29263;48.172;11.484;2023-03-13T00:00:59;5.80;99.90
43665;DHT22;29263;48.172;11.484;2023-03-13T00:03:25;5.80;99.90
43665;DHT22;29263;48.172;11.484;2023-03-13T00:05:55;5.80;99.90
43665;DHT22;29263;48.172;11.484;2023-03-13T00:08:21;5.80;99.90
43665;DHT22;29263;48.172;11.484;2023-03-13T00:10:47;5.80;99.90
43665;DHT22;29263;48.172;11.484;2023-03-13T00:13:13;5.80;99.90
43665;DHT22;29263;48.172;11.484;2023-03-13T00:15:38;5.80;99.90
43665;DHT22;29263;48.172;11.484;2023-03-13T00:18:04;5.80;99.90
43665;DHT22;29263;48.172;11.484;2023-03-13T00:20:30;5.80;99.90
43665;DHT22;29263;48.172;11.484;2023-03-13T00:22:55;5.80;99.90
43665;DHT22;29263;48.172;11.484;2023-03-13T00:25:21;5.80;99.90
43665;DHT22;29263;48.172;11.484;2023-03-13T00:27:46;5.70;99.90
43665;DHT22;29263;48.172;11.484;2023-03-13T00:30:12;5.70;99.90
43665;DHT22;29263;48.172;11.484;2023-03-13T00:32:45;5.70;99.90
43665;DHT22;29263;48.172;11.484;2023-03-13T00:35:14;5.60;99.90
43665;DHT22;29263;48.172;11.484;2023-03-13T00:37:40;5.70;99.90
43665;DHT22;29263;48.172;11.484;2023-03-13T00:40:06;5.60;99.90
43665;DHT22;29263;48.172;11.484;2023-03-13T00:42:33;5.60;99.90
43665;DHT22;29263;48.172;11.484;2023-03-13T00:44:58;5.60;99.90
43665;DHT22;29263;48.172;11.484;2023-03-13T00:47:24;5.60;99.90
43665;DHT22;29263;48.172;11.484;2023-03-13T00:49:49;5.60;99.90
43665;DHT22;29263;48.172;11.484;2023-03-13T00:52:15;5.50;99.90
43665;DHT22;29263;48.172;11.484;2023-03-13T00:54:41;5.50;99.90
43665;DHT22;29263;48.172;11.484;2023-03-13T00:57:07;5.50;99.90
43665;DHT22;29263;48.172;11.484;2023-03-13T00:59:33;5.40;99.90
43665;DHT22;29263;48.172;11.484;2023-03-13T01:01:59;5.40;99.90
43665;DHT22;29263;48.172;11.484;2023-03-13T01:04:24;5.30;99.90
43665;DHT22;29263;48.172;11.484;2023-03-13T01:06:50;5.30;99.90
43665;DHT22;29263;48.172;11.484;2023-03-13T01:09:16;5.30;99.90
43665;DHT22;29263;48.172;11.484;2023-03-13T01:11:43;5.20;99.90
43665;DHT22;29263;48.172;11.484;2023-03-13T01:14:13;5.20;99.90
43665;DHT22;29263;48.172;11.484;2023-03-13T01:16:39;5.10;99.90
43665;DHT22;29263;48.172;11.484;2023-03-13T01:19:10;5.10;99.90
43665;DHT22;29263;48.172;11.484;2023-03-13T01:21:36;5.00;99.90
43665;DHT22;29263;48.172;11.484;2023-03-13T01:24:02;5.00;99.90
43665;DHT22;29263;48.172;11.484;2023-03-13T01:26:28;4.90;99.90
43665;DHT22;29263;48.172;11.484;2023-03-13T01:28:54;4.80;99.90
43665;DHT22;29263;48.172;11.484;2023-03-13T01:31:25;4.80;99.90
43665;DHT22;29263;48.172;11.484;2023-03-13T01:33:54;4.90;99.90
43665;DHT22;29263;48.172;11.484;2023-03-13T01:36:20;4.80;99.90
43665;DHT22;29263;48.172;11.484;2023-03-13T01:38:50;4.80;99.90
43665;DHT22;29263;48.172;11.484;2023-03-13T01:41:17;4.80;99.90
43665;DHT22;29263;48.172;11.484;2023-03-13T01:43:44;4.80;99.90
43665;DHT22;29263;48.172;11.484;2023-03-13T01:46:18;4.70;99.90
43665;DHT22;29263;48.172;11.484;2023-03-13T01:49:10;4.60;99.90
43665;DHT22;29263;48.172;11.484;2023-03-13T01:51:49;4.60;99.90
43665;DHT22;29263;48.172;11.484;2023-03-13T01:59:45;4.50;99.90
43665;DHT22;29263;48.172;11.484;2023-03-13T02:02:12;4.50;99.90
43665;DHT22;29263;48.172;11.484;2023-03-13T02:04:42;4.50;99.90
43665;DHT22;29263;48.172;11.484;2023-03-13T02:07:13;4.50;99.90
43665;DHT22;29263;48.172;11.484;2023-03-13T02:09:43;4.50;99.90
43665;DHT22;29263;48.172;11.484;2023-03-13T02:12:16;4.40;99.90
43665;DHT22;29263;48.172;11.484;2023-03-13T02:14:44;4.40;99.90
43665;DHT22;29263;48.172;11.484;2023-03-13T02:17:12;4.40;99.90
43665;DHT22;29263;48.172;11.484;2023-03-13T02:19:47;4.30;99.90
43665;DHT22;29263;48.172;11.484;2023-03-13T02:22:30;4.30;99.90
43665;DHT22;29263;48.172;11.484;2023-03-13T02:30:16;4.30;99.90
43665;DHT22;29263;48.172;11.484;2023-03-13T02:32:42;4.30;99.90
43665;DHT22;29263;48.172;11.484;2023-03-13T02:35:11;4.30;99.90
43665;DHT22;29263;48.172;11.484;2023-03-13T02:37:39;4.30;99.90
43665;DHT22;29263;48.172;11.484;2023-03-13T02:40:08;4.30;99.90
43665;DHT22;29263;48.172;11.484;2023-03-13T02:42:37;4.30;99.90
43665;DHT22;29263;48.172;11.484;2023-03-13T02:45:05;4.30;99.90
43665;DHT22;29263;48.172;11.484;2023-03-13T02:47:31;4.30;99.90
43665;DHT22;29263;48.172;11.484;2023-03-13T02:49:56;4.30;99.90
43665;DHT22;29263;48.172;11.484;2023-03-13T02:52:23;4.30;99.90
43665;DHT22;29263;48.172;11.484;2023-03-13T02:54:54;4.40;99.90
43665;DHT22;29263;48.172;11.484;2023-03-13T02:57:21;4.40;99.90
43665;DHT22;29263;48.172;11.484;2023-03-13T02:59:47;4.40;99.90
43665;DHT22;29263;48.172;11.484;2023-03-13T03:02:12;4.40;99.90
43665;DHT22;29263;48.172;11.484;2023-03-13T03:04:38;4.40;99.90
43665;DHT22;29263;48.172;11.484;2023-03-13T03:07:04;4.40;99.90
43665;DHT22;29263;48.172;11.484;2023-03-13T03:09:29;4.40;99.90
43665;DHT22;29263;48.172;11.484;2023-03-13T03:11:55;4.40;99.90
43665;DHT22;29263;48.172;11.484;2023-03-13T03:14:20;4.50;99.90
43665;DHT22;29263;48.172;11.484;2023-03-13T03:16:46;4.50;99.90
43665;DHT22;29263;48.172;11.484;2023-03-13T03:19:12;4.50;99.90
43665;DHT22;29263;48.172;11.484;2023-03-13T03:21:38;4.50;99.90
43665;DHT22;29263;48.172;11.484;2023-03-13T03:24:04;4.50;99.90
43665;DHT22;29263;48.172;11.484;2023-03-13T03:26:30;4.60;99.90
43665;DHT22;29263;48.172;11.484;2023-03-13T03:28:55;4.60;99.90
43665;DHT22;29263;48.172;11.484;2023-03-13T03:31:21;4.60;99.90
43665;DHT22;29263;48.172;11.484;2023-03-13T03:33:47;4.60;99.90
43665;DHT22;29263;48.172;11.484;2023-03-13T03:36:15;4.60;99.90
43665;DHT22;29263;48.172;11.484;2023-03-13T03:38:42;4.60;99.90
43665;DHT22;29263;48.172;11.484;2023-03-13T03:41:09;4.70;99.90
43665;DHT22;29263;48.172;11.484;2023-03-13T03:43:35;4.60;99.90
43665;DHT22;29263;48.172;11.484;2023-03-13T03:46:01;4.60;99.90
43665;DHT22;29263;48.172;11.484;2023-03-13T03:48:27;4.60;99.90
43665;DHT22;29263;48.172;11.484;2023-03-13T03:50:52;4.70;99.90
43665;DHT22;29263;48.172;11.484;2023-03-13T03:53:18;4.70;99.90
43665;DHT22;29263;48.172;11.484;2023-03-13T03:55:44;4.70;99.90
43665;DHT22;29263;48.172;11.484;2023-03-13T03:58:09;4.70;99.90
43665;DHT22;29263;48.172;11.484;2023-03-13T04:00:35;4.70;99.90
43665;DHT22;29263;48.172;11.484;2023-03-13T04:03:01;4.70;99.90
43665;DHT22;29263;48.172;11.484;2023-03-13T04:05:27;4.70;99.90
43665;DHT22;29263;48.172;11.484;2023-03-13T04:07:52;4.70;99.90
43665;DHT22;29263;48.172;11.484;2023-03-13T04:10:18;4.80;99.90
43665;DHT22;29263;48.172;11.484;2023-03-13T04:12:43;4.80;99.90
43665;DHT22;29263;48.172;11.484;2023-03-13T04:15:09;4.80;99.90
43665;DHT22;29263;48.172;11.484;2023-03-13T04:17:35;4.80;99.90
43665;DHT22;29263;48.172;11.484;2023-03-13T04:20:01;4.90;99.90
43665;DHT22;29263;48.172;11.484;2023-03-13T04:22:26;4.90;99.90
43665;DHT22;29263;48.172;11.484;2023-03-13T04:24:52;5.00;99.90
43665;DHT22;29263;48.172;11.484;2023-03-13T04:27:18;5.00;99.90
43665;DHT22;29263;48.172;11.484;2023-03-13T04:29:44;5.00;99.90
43665;DHT22;29263;48.172;11.484;2023-03-13T04:32:09;5.00;99.90
43665;DHT22;29263;48.172;11.484;2023-03-13T04:34:35;5.10;99.90
43665;DHT22;29263;48.172;11.484;2023-03-13T04:37:01;5.00;99.90
43665;DHT22;29263;48.172;11.484;2023-03-13T04:39:26;5.00;99.90
43665;DHT22;29263;48.172;11.484;2023-03-13T04:41:53;5.10;99.90
43665;DHT22;29263;48.172;11.484;2023-03-13T04:44:19;5.10;99.90
43665;DHT22;29263;48.172;11.484;2023-03-13T04:46:45;5.00;99.90
43665;DHT22;29263;48.172;11.484;2023-03-13T04:49:10;5.10;99.90
43665;DHT22;29263;48.172;11.484;2023-03-13T04:51:36;5.10;99.90
43665;DHT22;29263;48.172;11.484;2023-03-13T04:54:01;5.10;99.90
43665;DHT22;29263;48.172;11.484;2023-03-13T04:56:28;5.10;99.90
43665;DHT22;29263;48.172;11.484;2023-03-13T04:58:53;5.20;99.90
43665;DHT22;29263;48.172;11.484;2023-03-13T05:01:19;5.20;99.90
43665;DHT22;29263;48.172;11.484;2023-03-13T05:03:45;5.20;99.90
43665;DHT22;29263;48.172;11.484;2023-03-13T05:06:11;5.20;99.90
43665;DHT22;29263;48.172;11.484;2023-03-13T05:08:37;5.20;99.90
43665;DHT22;29263;48.172;11.484;2023-03-13T05:11:03;5.30;99.90
43665;DHT22;29263;48.172;11.484;2023-03-13T05:13:29;5.30;99.90
43665;DHT22;29263;48.172;11.484;2023-03-13T05:15:55;5.30;99.90
43665;DHT22;29263;48.172;11.484;2023-03-13T05:18:21;5.30;99.90
43665;DHT22;29263;48.172;11.484;2023-03-13T05:20:46;5.40;99.90
43665;DHT22;29263;48.172;11.484;2023-03-13T05:23:12;5.40;99.90
43665;DHT22;29263;48.172;11.484;2023-03-13T05:25:38;5.40;99.90
43665;DHT22;29263;48.172;11.484;2023-03-13T05:28:03;5.40;99.90
43665;DHT22;29263;48.172;11.484;2023-03-13T05:30:29;5.40;99.90
43665;DHT22;29263;48.172;11.484;2023-03-13T05:32:55;5.40;99.90
43665;DHT22;29263;48.172;11.484;2023-03-13T05:35:20;5.50;99.90
43665;DHT22;29263;48.172;11.484;2023-03-13T05:37:46;5.50;99.90
43665;DHT22;29263;48.172;11.484;2023-03-13T05:40:12;5.50;99.90
43665;DHT22;29263;48.172;11.484;2023-03-13T05:42:38;5.50;99.90
43665;DHT22;29263;48.172;11.484;2023-03-13T05:45:04;5.60;99.90
43665;DHT22;29263;48.172;11.484;2023-03-13T05:47:30;5.60;99.90
43665;DHT22;29263;48.172;11.484;2023-03-13T05:49:56;5.60;99.90
43665;DHT22;29263;48.172;11.484;2023-03-13T05:52:21;5.70;99.90
43665;DHT22;29263;48.172;11.484;2023-03-13T05:54:47;5.70;99.90
43665;DHT22;29263;48.172;11.484;2023-03-13T05:57:13;5.70;99.90
43665;DHT22;29263;48.172;11.484;2023-03-13T05:59:38;5.70;99.90
43665;DHT22;29263;48.172;11.484;2023-03-13T06:02:04;5.80;99.90
43665;DHT22;29263;48.172;11.484;2023-03-13T06:04:30;5.80;99.90
43665;DHT22;29263;48.172;11.484;2023-03-13T06:06:55;5.90;99.90
43665;DHT22;29263;48.172;11.484;2023-03-13T06:09:21;5.90;99.90
43665;DHT22;29263;48.172;11.484;2023-03-13T06:11:47;5.90;99.90
43665;DHT22;29263;48.172;11.484;2023-03-13T06:14:12;6.00;99.90
43665;DHT22;29263;48.172;11.484;2023-03-13T06:16:38;6.00;99.90
43665;DHT22;29263;48.172;11.484;2023-03-13T06:19:03;6.10;99.90
43665;DHT22;29263;48.172;11.484;2023-03-13T06:21:29;6.20;99.90
43665;DHT22;29263;48.172;11.484;2023-03-13T06:23:55;6.20;99.90
43665;DHT22;29263;48.172;11.484;2023-03-13T06:26:21;6.30;99.90
43665;DHT22;29263;48.172;11.484;2023-03-13T06:28:48;6.40;99.90
43665;DHT22;29263;48.172;11.484;2023-03-13T06:31:17;6.40;99.90
43665;DHT22;29263;48.172;11.484;2023-03-13T06:33:43;6.50;99.90
43665;DHT22;29263;48.172;11.484;2023-03-13T06:36:09;6.50;99.90
43665;DHT22;29263;48.172;11.484;2023-03-13T06:38:35;6.60;99.90
43665;DHT22;29263;48.172;11.484;2023-03-13T06:41:01;6.70;99.90
43665;DHT22;29263;48.172;11.484;2023-03-13T06:43:26;6.70;99.90
43665;DHT22;29263;48.172;11.484;2023-03-13T06:45:52;6.80;99.90
43665;DHT22;29263;48.172;11.484;2023-03-13T06:48:18;6.90;99.90
43665;DHT22;29263;48.172;11.484;2023-03-13T06:50:44;6.90;99.90
43665;DHT22;29263;48.172;11.484;2023-03-13T06:53:18;7.00;99.90
43665;DHT22;29263;48.172;11.484;2023-03-13T06:55:44;7.00;99.90
43665;DHT22;29263;48.172;11.484;2023-03-13T06:58:11;7.00;99.90
43665;DHT22;29263;48.172;11.484;2023-03-13T07:00:36;7.10;99.90
43665;DHT22;29263;48.172;11.484;2023-03-13T07:03:04;7.10;99.90
43665;DHT22;29263;48.172;11.484;2023-03-13T07:05:30;7.20;99.90
43665;DHT22;29263;48.172;11.484;2023-03-13T07:07:56;7.20;99.90
43665;DHT22;29263;48.172;11.484;2023-03-13T07:10:21;7.20;99.90
43665;DHT22;29263;48.172;11.484;2023-03-13T07:12:47;7.30;99.90
43665;DHT22;29263;48.172;11.484;2023-03-13T07:15:13;7.30;99.90
43665;DHT22;29263;48.172;11.484;2023-03-13T07:17:38;7.50;99.90
43665;DHT22;29263;48.172;11.484;2023-03-13T07:20:04;7.50;99.90
43665;DHT22;29263;48.172;11.484;2023-03-13T07:22:31;7.60;99.90
43665;DHT22;29263;48.172;11.484;2023-03-13T07:24:57;7.70;99.90
43665;DHT22;29263;48.172;11.484;2023-03-13T07:27:24;7.80;99.90
43665;DHT22;29263;48.172;11.484;2023-03-13T07:29:49;7.90;99.90
43665;DHT22;29263;48.172;11.484;2023-03-13T07:32:15;8.00;99.90
43665;DHT22;29263;48.172;11.484;2023-03-13T07:34:41;8.00;99.90
43665;DHT22;29263;48.172;11.484;2023-03-13T07:37:13;8.00;99.90
43665;DHT22;29263;48.172;11.484;2023-03-13T07:39:38;8.10;99.90
43665;DHT22;29263;48.172;11.484;2023-03-13T07:42:04;8.10;99.90
43665;DHT22;29263;48.172;11.484;2023-03-13T07:44:30;8.10;99.90
43665;DHT22;29263;48.172;11.484;2023-03-13T07:46:59;8.20;99.90
43665;DHT22;29263;48.172;11.484;2023-03-13T07:49:25;8.20;99.90
43665;DHT22;29263;48.172;11.484;2023-03-13T07:51:50;8.30;99.90
43665;DHT22;29263;48.172;11.484;2023-03-13T07:54:16;8.40;99.90
43665;DHT22;29263;48.172;11.484;2023-03-13T07:56:41;8.50;99.90
43665;DHT22;29263;48.172;11.484;2023-03-13T07:59:07;8.70;99.90
43665;DHT22;29263;48.172;11.484;2023-03-13T08:01:33;8.80;99.30
43665;DHT22;29263;48.172;11.484;2023-03-13T08:03:59;8.90;96.20
43665;DHT22;29263;48.172;11.484;2023-03-13T08:06:30;9.00;95.30
43665;DHT22;29263;48.172;11.484;2023-03-13T08:08:57;9.10;97.00
43665;DHT22;29263;48.172;11.484;2023-03-13T08:11:24;9.20;97.10
43665;DHT22;29263;48.172;11.484;2023-03-13T08:13:51;9.30;99.30
43665;DHT22;29263;48.172;11.484;2023-03-13T08:16:19;9.40;95.10
43665;DHT22;29263;48.172;11.484;2023-03-13T08:18:50;9.40;93.80
43665;DHT22;29263;48.172;11.484;2023-03-13T08:21:25;9.60;91.60
43665;DHT22;29263;48.172;11.484;2023-03-13T08:23:55;9.70;90.90
43665;DHT22;29263;48.172;11.484;2023-03-13T08:26:24;9.80;93.00
43665;DHT22;29263;48.172;11.484;2023-03-13T08:28:53;9.80;92.60
43665;DHT22;29263;48.172;11.484;2023-03-13T08:31:21;9.90;97.50
43665;DHT22;29263;48.172;11.484;2023-03-13T08:33:47;9.80;99.90
43665;DHT22;29263;48.172;11.484;2023-03-13T08:36:18;9.80;99.90
43665;DHT22;29263;48.172;11.484;2023-03-13T08:38:45;9.70;99.90
43665;DHT22;29263;48.172;11.484;2023-03-13T08:41:16;9.70;99.90
43665;DHT22;29263;48.172;11.484;2023-03-13T08:43:43;9.60;99.90
43665;DHT22;29263;48.172;11.484;2023-03-13T08:46:08;9.70;99.90
43665;DHT22;29263;48.172;11.484;2023-03-13T08:48:34;9.80;99.90
43665;DHT22;29263;48.172;11.484;2023-03-13T08:51:04;9.90;99.90
43665;DHT22;29263;48.172;11.484;2023-03-13T08:53:31;10.00;99.90
43665;DHT22;29263;48.172;11.484;2023-03-13T08:55:57;10.20;99.90
43665;DHT22;29263;48.172;11.484;2023-03-13T08:58:23;10.40;99.90
43665;DHT22;29263;48.172;11.484;2023-03-13T09:00:49;10.60;99.90
43665;DHT22;29263;48.172;11.484;2023-03-13T09:03:14;10.90;93.10
43665;DHT22;29263;48.172;11.484;2023-03-13T09:05:41;11.20;96.10
43665;DHT22;29263;48.172;11.484;2023-03-13T09:08:07;11.50;96.70
43665;DHT22;29263;48.172;11.484;2023-03-13T09:10:33;11.70;99.50
43665;DHT22;29263;48.172;11.484;2023-03-13T09:12:59;11.80;89.40
43665;DHT22;29263;48.172;11.484;2023-03-13T09:15:24;11.90;85.40
43665;DHT22;29263;48.172;11.484;2023-03-13T09:17:50;11.90;83.10
43665;DHT22;29263;48.172;11.484;2023-03-13T09:20:16;11.90;87.40
43665;DHT22;29263;48.172;11.484;2023-03-13T09:22:43;12.00;86.70
43665;DHT22;29263;48.172;11.484;2023-03-13T09:25:10;12.20;75.60
43665;DHT22;29263;48.172;11.484;2023-03-13T09:27:35;12.50;78.30
43665;DHT22;29263;48.172;11.484;2023-03-13T09:30:01;12.70;68.40
43665;DHT22;29263;48.172;11.484;2023-03-13T09:32:26;13.00;65.80
43665;DHT22;29263;48.172;11.484;2023-03-13T09:34:52;13.20;65.70
43665;DHT22;29263;48.172;11.484;2023-03-13T09:37:18;13.30;68.30
43665;DHT22;29263;48.172;11.484;2023-03-13T09:39:44;13.40;64.80
43665;DHT22;29263;48.172;11.484;2023-03-13T09:42:20;13.40;64.80
43665;DHT22;29263;48.172;11.484;2023-03-13T09:44:54;13.50;61.80
43665;DHT22;29263;48.172;11.484;2023-03-13T09:47:28;13.60;61.20
43665;DHT22;29263;48.172;11.484;2023-03-13T09:50:02;13.70;62.10
43665;DHT22;29263;48.172;11.484;2023-03-13T09:52:33;13.90;59.50
43665;DHT22;29263;48.172;11.484;2023-03-13T09:58:29;14.40;60.70
43665;DHT22;29263;48.172;11.484;2023-03-13T10:18:32;15.40;55.70
43665;DHT22;29263;48.172;11.484;2023-03-13T10:30:53;15.80;55.10
43665;DHT22;29263;48.172;11.484;2023-03-13T10:33:25;15.90;55.60
43665;DHT22;29263;48.172;11.484;2023-03-13T10:36:05;16.10;55.80
43665;DHT22;29263;48.172;11.484;2023-03-13T10:38:34;16.20;55.40
43665;DHT22;29263;48.172;11.484;2023-03-13T10:41:06;16.20;57.60
43665;DHT22;29263;48.172;11.484;2023-03-13T10:43:35;16.30;54.80
43665;DHT22;29263;48.172;11.484;2023-03-13T10:46:23;16.30;55.40
43665;DHT22;29263;48.172;11.484;2023-03-13T10:48:53;16.20;55.30
43665;DHT22;29263;48.172;11.484;2023-03-13T10:51:22;16.20;55.30
43665;DHT22;29263;48.172;11.484;2023-03-13T10:54:00;16.30;55.40
43665;DHT22;29263;48.172;11.484;2023-03-13T10:56:29;16.20;56.00
43665;DHT22;29263;48.172;11.484;2023-03-13T10:58:58;16.30;56.40
43665;DHT22;29263;48.172;11.484;2023-03-13T11:01:39;16.40;56.20
43665;DHT22;29263;48.172;11.484;2023-03-13T11:07:01;16.70;56.10
43665;DHT22;29263;48.172;11.484;2023-03-13T11:09:28;16.80;56.20
43665;DHT22;29263;48.172;11.484;2023-03-13T11:12:00;16.90;57.40
43665;DHT22;29263;48.172;11.484;2023-03-13T11:14:27;17.00;57.20
43665;DHT22;29263;48.172;11.484;2023-03-13T11:17:08;16.90;56.40
43665;DHT22;29263;48.172;11.484;2023-03-13T11:19:44;16.90;57.00
43665;DHT22;29263;48.172;11.484;2023-03-13T11:23:31;17.00;57.00
43665;DHT22;29263;48.172;11.484;2023-03-13T11:33:07;17.60;58.30
43665;DHT22;29263;48.172;11.484;2023-03-13T11:35:45;17.80;59.30
43665;DHT22;29263;48.172;11.484;2023-03-13T11:40:55;18.00;57.40
43665;DHT22;29263;48.172;11.484;2023-03-13T11:43:44;18.00;58.20
43665;DHT22;29263;48.172;11.484;2023-03-13T11:55:09;18.00;55.90
43665;DHT22;29263;48.172;11.484;2023-03-13T11:57:49;18.00;55.90
43665;DHT22;29263;48.172;11.484;2023-03-13T12:00:36;18.10;55.40
43665;DHT22;29263;48.172;11.484;2023-03-13T12:03:15;18.20;54.80
43665;DHT22;29263;48.172;11.484;2023-03-13T12:05:51;18.20;55.10
43665;DHT22;29263;48.172;11.484;2023-03-13T12:08:27;18.20;54.40
43665;DHT22;29263;48.172;11.484;2023-03-13T12:14:27;18.30;54.50
43665;DHT22;29263;48.172;11.484;2023-03-13T12:17:26;18.40;54.00
43665;DHT22;29263;48.172;11.484;2023-03-13T12:22:41;18.10;54.10
43665;DHT22;29263;48.172;11.484;2023-03-13T12:27:51;18.10;54.60
43665;DHT22;29263;48.172;11.484;2023-03-13T12:36:16;18.20;55.70
43665;DHT22;29263;48.172;11.484;2023-03-13T12:38:46;18.40;54.60
43665;DHT22;29263;48.172;11.484;2023-03-13T12:41:37;18.40;54.00
43665;DHT22;29263;48.172;11.484;2023-03-13T12:44:09;18.50;54.20
43665;DHT22;29263;48.172;11.484;2023-03-13T12:49:55;18.80;53.90
43665;DHT22;29263;48.172;11.484;2023-03-13T12:55:38;19.00;53.20
43665;DHT22;29263;48.172;11.484;2023-03-13T13:01:04;19.20;52.40
43665;DHT22;29263;48.172;11.484;2023-03-13T13:03:51;19.30;54.20
43665;DHT22;29263;48.172;11.484;2023-03-13T13:06:19;19.30;52.80
43665;DHT22;29263;48.172;11.484;2023-03-13T13:09:00;19.40;53.40
43665;DHT22;29263;48.172;11.484;2023-03-13T13:16:30;19.60;53.00
43665;DHT22;29263;48.172;11.484;2023-03-13T13:19:58;19.70;52.20
43665;DHT22;29263;48.172;11.484;2023-03-13T13:25:28;19.80;51.00
43665;DHT22;29263;48.172;11.484;2023-03-13T13:27:54;19.90;51.90
43665;DHT22;29263;48.172;11.484;2023-03-13T13:32:56;19.90;51.20
43665;DHT22;29263;48.172;11.484;2023-03-13T13:35:41;20.00;52.00
43665;DHT22;29263;48.172;11.484;2023-03-13T13:44:13;20.30;51.00
43665;DHT22;29263;48.172;11.484;2023-03-13T13:46:44;20.50;50.10
43665;DHT22;29263;48.172;11.484;2023-03-13T13:51:41;20.80;49.00
43665;DHT22;29263;48.172;11.484;2023-03-13T13:57:14;20.80;50.60
43665;DHT22;29263;48.172;11.484;2023-03-13T13:59:43;21.00;50.50
43665;DHT22;29263;48.172;11.484;2023-03-13T14:02:21;21.20;50.10
43665;DHT22;29263;48.172;11.484;2023-03-13T14:05:03;21.60;49.60
43665;DHT22;29263;48.172;11.484;2023-03-13T14:12:56;22.30;45.80
43665;DHT22;29263;48.172;11.484;2023-03-13T14:15:30;22.40;45.60
43665;DHT22;29263;48.172;11.484;2023-03-13T14:18:09;22.90;45.10
43665;DHT22;29263;48.172;11.484;2023-03-13T14:20:37;23.70;43.90
43665;DHT22;29263;48.172;11.484;2023-03-13T14:23:10;24.60;41.80
43665;DHT22;29263;48.172;11.484;2023-03-13T14:25:44;25.40;40.80
43665;DHT22;29263;48.172;11.484;2023-03-13T14:28:22;26.40;38.60
43665;DHT22;29263;48.172;11.484;2023-03-13T14:30:51;27.10;37.40
43665;DHT22;29263;48.172;11.484;2023-03-13T14:33:19;27.30;37.20
43665;DHT22;29263;48.172;11.484;2023-03-13T14:35:46;27.80;36.70
43665;DHT22;29263;48.172;11.484;2023-03-13T14:38:17;27.60;35.50
43665;DHT22;29263;48.172;11.484;2023-03-13T14:40:43;27.70;35.60
43665;DHT22;29263;48.172;11.484;2023-03-13T14:43:34;27.70;36.00
43665;DHT22;29263;48.172;11.484;2023-03-13T14:46:14;27.90;36.00
43665;DHT22;29263;48.172;11.484;2023-03-13T14:48:40;28.20;34.70
43665;DHT22;29263;48.172;11.484;2023-03-13T14:51:16;28.00;34.20
43665;DHT22;29263;48.172;11.484;2023-03-13T14:53:53;27.00;35.90
43665;DHT22;29263;48.172;11.484;2023-03-13T14:56:19;27.10;36.30
43665;DHT22;29263;48.172;11.484;2023-03-13T14:58:46;27.50;35.50
43665;DHT22;29263;48.172;11.484;2023-03-13T15:01:24;27.80;35.20
43665;DHT22;29263;48.172;11.484;2023-03-13T15:03:50;27.70;36.70
43665;DHT22;29263;48.172;11.484;2023-03-13T15:06:21;27.20;35.50
43665;DHT22;29263;48.172;11.484;2023-03-13T15:09:06;26.50;35.40
43665;DHT22;29263;48.172;11.484;2023-03-13T15:11:35;26.40;36.20
43665;DHT22;29263;48.172;11.484;2023-03-13T15:17:00;25.60;38.50
43665;DHT22;29263;48.172;11.484;2023-03-13T15:19:26;25.10;40.50
43665;DHT22;29263;48.172;11.484;2023-03-13T15:21:52;24.70;39.90
43665;DHT22;29263;48.172;11.484;2023-03-13T15:24:19;24.20;39.40
43665;DHT22;29263;48.172;11.484;2023-03-13T15:26:44;23.70;40.50
43665;DHT22;29263;48.172;11.484;2023-03-13T15:29:10;23.20;42.60
43665;DHT22;29263;48.172;11.484;2023-03-13T15:31:36;23.10;43.80
43665;DHT22;29263;48.172;11.484;2023-03-13T15:34:02;23.00;44.00
43665;DHT22;29263;48.172;11.484;2023-03-13T15:36:29;23.00;44.00
43665;DHT22;29263;48.172;11.484;2023-03-13T15:38:56;22.80;43.90
43665;DHT22;29263;48.172;11.484;2023-03-13T15:41:22;22.80;44.50
43665;DHT22;29263;48.172;11.484;2023-03-13T15:43:48;22.80;44.50
43665;DHT22;29263;48.172;11.484;2023-03-13T15:46:18;23.10;43.90
43665;DHT22;29263;48.172;11.484;2023-03-13T15:48:44;22.90;43.60
43665;DHT22;29263;48.172;11.484;2023-03-13T15:51:12;22.40;44.60
43665;DHT22;29263;48.172;11.484;2023-03-13T15:53:39;22.10;45.90
43665;DHT22;29263;48.172;11.484;2023-03-13T15:56:15;21.90;45.40
43665;DHT22;29263;48.172;11.484;2023-03-13T15:58:42;21.70;46.70
43665;DHT22;29263;48.172;11.484;2023-03-13T16:01:10;21.70;47.20
43665;DHT22;29263;48.172;11.484;2023-03-13T16:03:36;21.70;47.30
43665;DHT22;29263;48.172;11.484;2023-03-13T16:06:17;21.80;45.60
43665;DHT22;29263;48.172;11.484;2023-03-13T16:08:47;21.70;45.40
43665;DHT22;29263;48.172;11.484;2023-03-13T16:11:14;21.50;46.60
43665;DHT22;29263;48.172;11.484;2023-03-13T16:13:40;21.40;46.50
43665;DHT22;29263;48.172;11.484;2023-03-13T16:16:25;21.10;46.60
43665;DHT22;29263;48.172;11.484;2023-03-13T16:18:53;20.70;47.30
43665;DHT22;29263;48.172;11.484;2023-03-13T16:21:22;20.30;49.50
43665;DHT22;29263;48.172;11.484;2023-03-13T16:23:48;20.00;49.40
43665;DHT22;29263;48.172;11.484;2023-03-13T16:26:22;19.90;50.60
43665;DHT22;29263;48.172;11.484;2023-03-13T16:28:48;19.60;50.70
43665;DHT22;29263;48.172;11.484;2023-03-13T16:31:26;19.30;50.90
43665;DHT22;29263;48.172;11.484;2023-03-13T16:33:53;19.20;51.60
43665;DHT22;29263;48.172;11.484;2023-03-13T16:36:21;19.10;52.10
43665;DHT22;29263;48.172;11.484;2023-03-13T16:38:48;19.00;52.10
43665;DHT22;29263;48.172;11.484;2023-03-13T16:41:19;18.80;52.50
43665;DHT22;29263;48.172;11.484;2023-03-13T16:43:45;18.70;52.90
43665;DHT22;29263;48.172;11.484;2023-03-13T16:46:19;18.50;52.80
43665;DHT22;29263;48.172;11.484;2023-03-13T16:48:46;18.40;53.60
43665;DHT22;29263;48.172;11.484;2023-03-13T16:51:34;18.40;55.00
43665;DHT22;29263;48.172;11.484;2023-03-13T16:54:00;18.30;54.60
43665;DHT22;29263;48.172;11.484;2023-03-13T16:56:29;18.10;54.10
43665;DHT22;29263;48.172;11.484;2023-03-13T16:58:55;18.00;55.30
43665;DHT22;29263;48.172;11.484;2023-03-13T17:01:22;18.00;55.60
43665;DHT22;29263;48.172;11.484;2023-03-13T17:03:50;17.90;56.20
43665;DHT22;29263;48.172;11.484;2023-03-13T17:06:21;17.70;55.90
43665;DHT22;29263;48.172;11.484;2023-03-13T17:08:47;17.60;56.50
43665;DHT22;29263;48.172;11.484;2023-03-13T17:11:15;17.50;56.70
43665;DHT22;29263;48.172;11.484;2023-03-13T17:13:45;17.40;57.80
43665;DHT22;29263;48.172;11.484;2023-03-13T17:16:20;17.20;58.20
43665;DHT22;29263;48.172;11.484;2023-03-13T17:18:49;17.10;58.90
43665;DHT22;29263;48.172;11.484;2023-03-13T17:21:19;17.00;59.20
43665;DHT22;29263;48.172;11.484;2023-03-13T17:23:45;16.80;59.60
43665;DHT22;29263;48.172;11.484;2023-03-13T17:26:23;16.70;59.60
43665;DHT22;29263;48.172;11.484;2023-03-13T17:28:51;16.50;60.90
43665;DHT22;29263;48.172;11.484;2023-03-13T17:31:18;16.30;61.30
43665;DHT22;29263;48.172;11.484;2023-03-13T17:33:44;16.20;61.80